Terminal Aerodrome Forecast
Issued by NWS Sterling, VA

Current Version | Previous Version | Text Only | Print | Product List | Glossary Off
Versions: 1 2 3 4 5 6 7 8 9 10 11 12 13 14 15 16 17 18 19 20 21 22 23 24 25

000
FTUS41 KLWX 270853 AAA
TAFDCA
TAF AMD
KDCA 270853Z 2709/2806 17003KT P6SM BKN035 OVC060
     FM271200 36006KT P6SM OVC090
     FM271500 34012G20KT P6SM BKN035
     FM272300 35008KT P6SM SCT050=

USA.gov is the U.S. government's official web portal to all federal, state and local government web resources and services.